sensor_id;sensor_type;location;lat;lon;timestamp;pressure;altitude;pressure_sealevel;temperature
67509;BMP280;54354;44.724;11.284;2024-01-27T00:01:10;102614.34;;;9.69
67509;BMP280;54354;44.724;11.284;2024-01-27T00:07:19;102612.44;;;9.69
67509;BMP280;54354;44.724;11.284;2024-01-27T00:09:48;102621.03;;;9.62
67509;BMP280;54354;44.724;11.284;2024-01-27T00:12:21;102629.47;;;10.10
67509;BMP280;54354;44.724;11.284;2024-01-27T00:18:33;102617.53;;;9.58
67509;BMP280;54354;44.724;11.284;2024-01-27T00:21:01;102604.25;;;9.35
67509;BMP280;54354;44.724;11.284;2024-01-27T00:23:30;102608.88;;;9.23
67509;BMP280;54354;44.724;11.284;2024-01-27T00:25:55;102613.59;;;9.13
67509;BMP280;54354;44.724;11.284;2024-01-27T00:28:27;102619.50;;;9.07
67509;BMP280;54354;44.724;11.284;2024-01-27T00:31:00;102603.00;;;9.13
67509;BMP280;54354;44.724;11.284;2024-01-27T00:33:31;102612.19;;;9.20
67509;BMP280;54354;44.724;11.284;2024-01-27T00:43:59;102631.81;;;9.54
67509;BMP280;54354;44.724;11.284;2024-01-27T00:50:11;102647.69;;;9.38
67509;BMP280;54354;44.724;11.284;2024-01-27T00:52:40;102658.75;;;9.24
67509;BMP280;54354;44.724;11.284;2024-01-27T00:55:08;102650.31;;;9.19
67509;BMP280;54354;44.724;11.284;2024-01-27T00:57:40;102650.59;;;9.13
67509;BMP280;54354;44.724;11.284;2024-01-27T01:00:12;102635.31;;;9.23
67509;BMP280;54354;44.724;11.284;2024-01-27T01:06:29;102654.75;;;9.50
67509;BMP280;54354;44.724;11.284;2024-01-27T01:10:20;102647.13;;;9.45
67509;BMP280;54354;44.724;11.284;2024-01-27T01:16:34;102662.47;;;9.39
67509;BMP280;54354;44.724;11.284;2024-01-27T01:27:05;102665.63;;;9.29
67509;BMP280;54354;44.724;11.284;2024-01-27T01:29:37;102669.84;;;9.14
67509;BMP280;54354;44.724;11.284;2024-01-27T01:39:33;102665.00;;;9.16
67509;BMP280;54354;44.724;11.284;2024-01-27T01:42:36;102681.09;;;9.11
67509;BMP280;54354;44.724;11.284;2024-01-27T01:45:04;102676.88;;;9.06
67509;BMP280;54354;44.724;11.284;2024-01-27T01:47:59;102680.63;;;9.05
67509;BMP280;54354;44.724;11.284;2024-01-27T01:54:15;102698.34;;;9.05
67509;BMP280;54354;44.724;11.284;2024-01-27T01:56:44;102699.69;;;8.99
67509;BMP280;54354;44.724;11.284;2024-01-27T02:02:53;102723.91;;;9.01
67509;BMP280;54354;44.724;11.284;2024-01-27T02:09:02;102716.59;;;8.94
67509;BMP280;54354;44.724;11.284;2024-01-27T02:11:35;102710.88;;;8.76
67509;BMP280;54354;44.724;11.284;2024-01-27T02:18:28;102715.88;;;8.81
67509;BMP280;54354;44.724;11.284;2024-01-27T02:20:56;102715.88;;;8.81
67509;BMP280;54354;44.724;11.284;2024-01-27T02:23:28;102718.97;;;8.83
67509;BMP280;54354;44.724;11.284;2024-01-27T02:25:57;102714.97;;;8.74
67509;BMP280;54354;44.724;11.284;2024-01-27T02:28:31;102704.31;;;8.70
67509;BMP280;54354;44.724;11.284;2024-01-27T02:30:59;102697.47;;;8.69
67509;BMP280;54354;44.724;11.284;2024-01-27T02:33:30;102703.53;;;8.70
67509;BMP280;54354;44.724;11.284;2024-01-27T02:35:59;102699.19;;;8.61
67509;BMP280;54354;44.724;11.284;2024-01-27T02:42:11;102720.47;;;8.53
67509;BMP280;54354;44.724;11.284;2024-01-27T02:44:50;102706.78;;;8.95
67509;BMP280;54354;44.724;11.284;2024-01-27T02:47:18;102711.47;;;8.70
67509;BMP280;54354;44.724;11.284;2024-01-27T02:56:42;102715.28;;;8.72
67509;BMP280;54354;44.724;11.284;2024-01-27T02:59:23;102699.59;;;8.63
67509;BMP280;54354;44.724;11.284;2024-01-27T03:01:49;102715.56;;;8.67
67509;BMP280;54354;44.724;11.284;2024-01-27T03:04:17;102701.16;;;8.65
67509;BMP280;54354;44.724;11.284;2024-01-27T03:06:49;102704.56;;;8.65
67509;BMP280;54354;44.724;11.284;2024-01-27T03:09:14;102695.34;;;8.75
67509;BMP280;54354;44.724;11.284;2024-01-27T03:14:24;102709.69;;;8.74
67509;BMP280;54354;44.724;11.284;2024-01-27T03:16:50;102712.75;;;8.76
67509;BMP280;54354;44.724;11.284;2024-01-27T03:19:16;102707.47;;;8.76
67509;BMP280;54354;44.724;11.284;2024-01-27T03:21:41;102710.88;;;8.76
67509;BMP280;54354;44.724;11.284;2024-01-27T03:24:07;102717.59;;;8.74
67509;BMP280;54354;44.724;11.284;2024-01-27T03:26:33;102723.13;;;8.69
67509;BMP280;54354;44.724;11.284;2024-01-27T03:28:58;102731.47;;;8.71
67509;BMP280;54354;44.724;11.284;2024-01-27T03:31:30;102720.41;;;8.65
67509;BMP280;54354;44.724;11.284;2024-01-27T03:33:55;102743.25;;;8.73
67509;BMP280;54354;44.724;11.284;2024-01-27T03:36:22;102743.25;;;8.73
67509;BMP280;54354;44.724;11.284;2024-01-27T03:38:47;102753.06;;;8.73
67509;BMP280;54354;44.724;11.284;2024-01-27T03:41:13;102754.69;;;8.77
67509;BMP280;54354;44.724;11.284;2024-01-27T03:43:38;102753.66;;;8.82
67509;BMP280;54354;44.724;11.284;2024-01-27T03:46:04;102753.66;;;8.82
67509;BMP280;54354;44.724;11.284;2024-01-27T03:48:30;102748.78;;;8.84
67509;BMP280;54354;44.724;11.284;2024-01-27T03:50:55;102743.94;;;8.86
67509;BMP280;54354;44.724;11.284;2024-01-27T03:53:21;102744.78;;;8.90
67509;BMP280;54354;44.724;11.284;2024-01-27T03:55:46;102744.47;;;8.92
67509;BMP280;54354;44.724;11.284;2024-01-27T03:58:12;102746.66;;;8.90
67509;BMP280;54354;44.724;11.284;2024-01-27T04:00:37;102748.63;;;8.93
67509;BMP280;54354;44.724;11.284;2024-01-27T04:03:03;102749.41;;;8.93
67509;BMP280;54354;44.724;11.284;2024-01-27T04:05:29;102743.25;;;8.89
67509;BMP280;54354;44.724;11.284;2024-01-27T04:07:55;102736.09;;;8.90
67509;BMP280;54354;44.724;11.284;2024-01-27T04:10:22;102739.19;;;8.92
67509;BMP280;54354;44.724;11.284;2024-01-27T04:12:48;102738.94;;;8.97
67509;BMP280;54354;44.724;11.284;2024-01-27T04:15:13;102751.38;;;8.96
67509;BMP280;54354;44.724;11.284;2024-01-27T04:17:40;102757.00;;;8.95
67509;BMP280;54354;44.724;11.284;2024-01-27T04:20:06;102753.66;;;8.98
67509;BMP280;54354;44.724;11.284;2024-01-27T04:22:33;102749.22;;;9.02
67509;BMP280;54354;44.724;11.284;2024-01-27T04:24:58;102747.78;;;9.04
67509;BMP280;54354;44.724;11.284;2024-01-27T04:27:24;102754.28;;;9.07
67509;BMP280;54354;44.724;11.284;2024-01-27T04:29:50;102753.53;;;9.06
67509;BMP280;54354;44.724;11.284;2024-01-27T04:32:15;102762.88;;;9.04
67509;BMP280;54354;44.724;11.284;2024-01-27T04:34:41;102755.28;;;9.02
67509;BMP280;54354;44.724;11.284;2024-01-27T04:37:06;102744.63;;;8.99
67509;BMP280;54354;44.724;11.284;2024-01-27T04:39:32;102747.19;;;8.95
67509;BMP280;54354;44.724;11.284;2024-01-27T04:41:57;102752.84;;;8.94
67509;BMP280;54354;44.724;11.284;2024-01-27T04:44:23;102743.34;;;8.93
67509;BMP280;54354;44.724;11.284;2024-01-27T04:46:48;102738.81;;;8.93
67509;BMP280;54354;44.724;11.284;2024-01-27T04:49:14;102743.03;;;8.94
67509;BMP280;54354;44.724;11.284;2024-01-27T04:51:40;102737.66;;;8.91
67509;BMP280;54354;44.724;11.284;2024-01-27T04:54:07;102751.38;;;8.96
67509;BMP280;54354;44.724;11.284;2024-01-27T04:56:32;102749.06;;;8.95
67509;BMP280;54354;44.724;11.284;2024-01-27T04:58:58;102738.50;;;8.95
67509;BMP280;54354;44.724;11.284;2024-01-27T05:01:23;102747.19;;;8.95
67509;BMP280;54354;44.724;11.284;2024-01-27T05:03:49;102746.34;;;8.91
67509;BMP280;54354;44.724;11.284;2024-01-27T05:06:14;102750.06;;;8.90
67509;BMP280;54354;44.724;11.284;2024-01-27T05:08:40;102745.91;;;8.89
67509;BMP280;54354;44.724;11.284;2024-01-27T05:11:06;102742.06;;;8.86
67509;BMP280;54354;44.724;11.284;2024-01-27T05:13:32;102737.47;;;8.83
67509;BMP280;54354;44.724;11.284;2024-01-27T05:15:57;102730.16;;;8.77
67509;BMP280;54354;44.724;11.284;2024-01-27T05:18:23;102744.47;;;8.76
67509;BMP280;54354;44.724;11.284;2024-01-27T05:20:48;102744.34;;;8.72
67509;BMP280;54354;44.724;11.284;2024-01-27T05:23:14;102751.09;;;8.70
67509;BMP280;54354;44.724;11.284;2024-01-27T05:25:39;102757.81;;;8.67
67509;BMP280;54354;44.724;11.284;2024-01-27T05:28:05;102756.63;;;8.65
67509;BMP280;54354;44.724;11.284;2024-01-27T05:30:31;102761.91;;;8.65
67509;BMP280;54354;44.724;11.284;2024-01-27T05:32:56;102776.03;;;8.72
67509;BMP280;54354;44.724;11.284;2024-01-27T05:35:21;102772.97;;;8.70
67509;BMP280;54354;44.724;11.284;2024-01-27T05:37:47;102780.91;;;8.70
67509;BMP280;54354;44.724;11.284;2024-01-27T05:40:13;102770.34;;;8.70
67509;BMP280;54354;44.724;11.284;2024-01-27T05:42:40;102760.47;;;8.67
67509;BMP280;54354;44.724;11.284;2024-01-27T05:45:08;102779.72;;;8.68
67509;BMP280;54354;44.724;11.284;2024-01-27T05:47:35;102781.47;;;8.63
67509;BMP280;54354;44.724;11.284;2024-01-27T05:50:00;102778.72;;;8.60
67509;BMP280;54354;44.724;11.284;2024-01-27T05:52:26;102772.03;;;8.62
67509;BMP280;54354;44.724;11.284;2024-01-27T05:54:52;102777.91;;;8.56
67509;BMP280;54354;44.724;11.284;2024-01-27T05:57:18;102784.59;;;8.53
67509;BMP280;54354;44.724;11.284;2024-01-27T05:59:43;102784.50;;;8.50
67509;BMP280;54354;44.724;11.284;2024-01-27T06:02:09;102794.22;;;8.46
67509;BMP280;54354;44.724;11.284;2024-01-27T06:04:34;102797.25;;;8.48
67509;BMP280;54354;44.724;11.284;2024-01-27T06:07:00;102791.25;;;8.47
67509;BMP280;54354;44.724;11.284;2024-01-27T06:09:28;102803.00;;;8.50
67509;BMP280;54354;44.724;11.284;2024-01-27T06:11:53;102816.81;;;8.59
67509;BMP280;54354;44.724;11.284;2024-01-27T06:14:19;102814.09;;;8.55
67509;BMP280;54354;44.724;11.284;2024-01-27T06:16:44;102822.44;;;8.57
67509;BMP280;54354;44.724;11.284;2024-01-27T06:19:10;102822.34;;;8.54
67509;BMP280;54354;44.724;11.284;2024-01-27T06:21:35;102810.84;;;8.46
67509;BMP280;54354;44.724;11.284;2024-01-27T06:24:01;102806.31;;;8.47
67509;BMP280;54354;44.724;11.284;2024-01-27T06:26:27;102801.81;;;8.47
67509;BMP280;54354;44.724;11.284;2024-01-27T06:28:52;102817.19;;;8.45
67509;BMP280;54354;44.724;11.284;2024-01-27T06:31:18;102815.66;;;8.44
67509;BMP280;54354;44.724;11.284;2024-01-27T06:33:43;102826.22;;;8.44
67509;BMP280;54354;44.724;11.284;2024-01-27T06:36:09;102809.75;;;8.35
67509;BMP280;54354;44.724;11.284;2024-01-27T06:38:37;102812.28;;;8.31
67509;BMP280;54354;44.724;11.284;2024-01-27T06:41:03;102815.34;;;8.33
67509;BMP280;54354;44.724;11.284;2024-01-27T06:43:28;102825.38;;;8.28
67509;BMP280;54354;44.724;11.284;2024-01-27T06:45:54;102820.00;;;8.24
67509;BMP280;54354;44.724;11.284;2024-01-27T06:48:22;102820.41;;;8.26
67509;BMP280;54354;44.724;11.284;2024-01-27T06:50:50;102823.63;;;8.32
67509;BMP280;54354;44.724;11.284;2024-01-27T06:53:18;102804.38;;;8.31
67509;BMP280;54354;44.724;11.284;2024-01-27T06:55:43;102823.16;;;8.42
67509;BMP280;54354;44.724;11.284;2024-01-27T06:58:09;102819.84;;;8.45
67509;BMP280;54354;44.724;11.284;2024-01-27T07:00:34;102818.84;;;8.50
67509;BMP280;54354;44.724;11.284;2024-01-27T07:03:00;102821.03;;;8.48
67509;BMP280;54354;44.724;11.284;2024-01-27T07:05:25;102828.28;;;8.51
67509;BMP280;54354;44.724;11.284;2024-01-27T07:07:51;102835.91;;;8.52
67509;BMP280;54354;44.724;11.284;2024-01-27T07:10:16;102832.72;;;8.47
67509;BMP280;54354;44.724;11.284;2024-01-27T07:12:42;102834.69;;;8.50
67509;BMP280;54354;44.724;11.284;2024-01-27T07:15:08;102844.13;;;8.51
67509;BMP280;54354;44.724;11.284;2024-01-27T07:17:33;102832.81;;;8.50
67509;BMP280;54354;44.724;11.284;2024-01-27T07:19:59;102841.19;;;8.52
67509;BMP280;54354;44.724;11.284;2024-01-27T07:22:25;102835.66;;;8.57
67509;BMP280;54354;44.724;11.284;2024-01-27T07:24:50;102845.75;;;8.68
67509;BMP280;54354;44.724;11.284;2024-01-27T07:27:16;102841.66;;;8.70
67509;BMP280;54354;44.724;11.284;2024-01-27T07:29:42;102836.22;;;8.79
67509;BMP280;54354;44.724;11.284;2024-01-27T07:32:08;102829.63;;;8.85
67509;BMP280;54354;44.724;11.284;2024-01-27T07:34:43;102813.06;;;8.88
67509;BMP280;54354;44.724;11.284;2024-01-27T07:37:09;102824.19;;;8.94
67509;BMP280;54354;44.724;11.284;2024-01-27T07:39:35;102828.00;;;8.96
67509;BMP280;54354;44.724;11.284;2024-01-27T07:42:00;102829.47;;;8.94
67509;BMP280;54354;44.724;11.284;2024-01-27T07:44:26;102849.25;;;9.00
67509;BMP280;54354;44.724;11.284;2024-01-27T07:46:52;102852.84;;;9.07
67509;BMP280;54354;44.724;11.284;2024-01-27T07:49:17;102854.88;;;9.14
67509;BMP280;54354;44.724;11.284;2024-01-27T07:51:44;102855.22;;;9.12
67509;BMP280;54354;44.724;11.284;2024-01-27T07:54:09;102857.63;;;9.18
67509;BMP280;54354;44.724;11.284;2024-01-27T07:56:35;102854.81;;;9.26
67509;BMP280;54354;44.724;11.284;2024-01-27T07:59:00;102863.38;;;9.35
67509;BMP280;54354;44.724;11.284;2024-01-27T08:01:26;102861.66;;;9.43
67509;BMP280;54354;44.724;11.284;2024-01-27T08:03:51;102873.41;;;9.46
67509;BMP280;54354;44.724;11.284;2024-01-27T08:06:19;102872.66;;;9.45
67509;BMP280;54354;44.724;11.284;2024-01-27T08:08:48;102872.44;;;9.50
67509;BMP280;54354;44.724;11.284;2024-01-27T08:11:14;102870.03;;;9.61
67509;BMP280;54354;44.724;11.284;2024-01-27T08:13:41;102887.94;;;9.68
67509;BMP280;54354;44.724;11.284;2024-01-27T08:16:07;102883.91;;;9.74
67509;BMP280;54354;44.724;11.284;2024-01-27T08:18:35;102884.44;;;9.79
67509;BMP280;54354;44.724;11.284;2024-01-27T08:21:03;102884.50;;;9.83
67509;BMP280;54354;44.724;11.284;2024-01-27T08:23:28;102912.59;;;9.87
67509;BMP280;54354;44.724;11.284;2024-01-27T08:25:54;102898.59;;;9.87
67509;BMP280;54354;44.724;11.284;2024-01-27T08:28:19;102898.00;;;9.94
67509;BMP280;54354;44.724;11.284;2024-01-27T08:30:45;102895.47;;;10.01
67509;BMP280;54354;44.724;11.284;2024-01-27T08:33:11;102903.94;;;10.06
67509;BMP280;54354;44.724;11.284;2024-01-27T08:35:36;102881.69;;;10.07
67509;BMP280;54354;44.724;11.284;2024-01-27T08:38:02;102877.97;;;10.12
67509;BMP280;54354;44.724;11.284;2024-01-27T08:40:29;102894.72;;;10.16
67509;BMP280;54354;44.724;11.284;2024-01-27T08:42:54;102893.59;;;10.17
67509;BMP280;54354;44.724;11.284;2024-01-27T08:45:20;102882.22;;;10.17
67509;BMP280;54354;44.724;11.284;2024-01-27T08:47:46;102881.69;;;10.27
67509;BMP280;54354;44.724;11.284;2024-01-27T08:50:11;102877.66;;;10.33
67509;BMP280;54354;44.724;11.284;2024-01-27T08:52:37;102885.75;;;10.40
67509;BMP280;54354;44.724;11.284;2024-01-27T08:55:02;102888.53;;;10.47
67509;BMP280;54354;44.724;11.284;2024-01-27T08:57:28;102908.00;;;10.55
67509;BMP280;54354;44.724;11.284;2024-01-27T08:59:53;102895.44;;;10.52
67509;BMP280;54354;44.724;11.284;2024-01-27T09:02:19;102890.16;;;10.52
67509;BMP280;54354;44.724;11.284;2024-01-27T09:04:45;102896.53;;;10.51
67509;BMP280;54354;44.724;11.284;2024-01-27T09:07:11;102904.47;;;10.51
67509;BMP280;54354;44.724;11.284;2024-01-27T09:09:37;102906.66;;;10.45
67509;BMP280;54354;44.724;11.284;2024-01-27T09:12:04;102914.31;;;10.50
67509;BMP280;54354;44.724;11.284;2024-01-27T09:14:30;102926.00;;;10.46
67509;BMP280;54354;44.724;11.284;2024-01-27T09:16:56;102928.47;;;10.38
67509;BMP280;54354;44.724;11.284;2024-01-27T09:19:22;102919.41;;;10.39
67509;BMP280;54354;44.724;11.284;2024-01-27T09:21:48;102924.44;;;10.45
67509;BMP280;54354;44.724;11.284;2024-01-27T09:24:14;102931.75;;;10.51
67509;BMP280;54354;44.724;11.284;2024-01-27T09:26:39;102923.53;;;10.56
67509;BMP280;54354;44.724;11.284;2024-01-27T09:29:05;102918.44;;;10.67
67509;BMP280;54354;44.724;11.284;2024-01-27T09:31:30;102931.84;;;10.74
67509;BMP280;54354;44.724;11.284;2024-01-27T09:33:56;102927.47;;;10.82
67509;BMP280;54354;44.724;11.284;2024-01-27T09:36:22;102932.56;;;10.90
67509;BMP280;54354;44.724;11.284;2024-01-27T09:38:48;102943.53;;;10.93
67509;BMP280;54354;44.724;11.284;2024-01-27T09:41:13;102944.19;;;10.86
67509;BMP280;54354;44.724;11.284;2024-01-27T09:43:43;102931.22;;;10.81
67509;BMP280;54354;44.724;11.284;2024-01-27T09:46:14;102948.16;;;10.96
67509;BMP280;54354;44.724;11.284;2024-01-27T09:48:40;102952.47;;;11.04
67509;BMP280;54354;44.724;11.284;2024-01-27T09:51:07;102940.13;;;11.11
67509;BMP280;54354;44.724;11.284;2024-01-27T09:53:34;102945.13;;;11.16
67509;BMP280;54354;44.724;11.284;2024-01-27T09:56:01;102951.63;;;11.19
67509;BMP280;54354;44.724;11.284;2024-01-27T09:58:30;102932.34;;;11.22
67509;BMP280;54354;44.724;11.284;2024-01-27T10:00:56;102953.81;;;11.36
67509;BMP280;54354;44.724;11.284;2024-01-27T10:03:27;102941.72;;;11.39
67509;BMP280;54354;44.724;11.284;2024-01-27T10:05:53;102956.09;;;12.10
67509;BMP280;54354;44.724;11.284;2024-01-27T10:08:20;102945.78;;;11.79
67509;BMP280;54354;44.724;11.284;2024-01-27T10:10:47;102953.69;;;11.75
67509;BMP280;54354;44.724;11.284;2024-01-27T10:13:16;102951.03;;;11.75
67509;BMP280;54354;44.724;11.284;2024-01-27T10:15:43;102972.13;;;11.91
67509;BMP280;54354;44.724;11.284;2024-01-27T10:18:09;102959.69;;;11.95
67509;BMP280;54354;44.724;11.284;2024-01-27T10:20:39;102945.75;;;12.02
67509;BMP280;54354;44.724;11.284;2024-01-27T10:23:12;102952.13;;;11.97
67509;BMP280;54354;44.724;11.284;2024-01-27T10:25:38;102973.81;;;12.03
67509;BMP280;54354;44.724;11.284;2024-01-27T10:28:06;102954.81;;;12.01
67509;BMP280;54354;44.724;11.284;2024-01-27T10:30:32;102962.00;;;12.00
67509;BMP280;54354;44.724;11.284;2024-01-27T10:32:58;102976.38;;;11.96
67509;BMP280;54354;44.724;11.284;2024-01-27T10:35:23;102964.56;;;11.93
67509;BMP280;54354;44.724;11.284;2024-01-27T10:37:53;102967.53;;;11.88
67509;BMP280;54354;44.724;11.284;2024-01-27T10:40:20;102978.56;;;11.90
67509;BMP280;54354;44.724;11.284;2024-01-27T10:42:46;102973.53;;;11.85
67509;BMP280;54354;44.724;11.284;2024-01-27T10:45:12;102964.44;;;11.86
67509;BMP280;54354;44.724;11.284;2024-01-27T10:47:39;102957.28;;;11.86
67509;BMP280;54354;44.724;11.284;2024-01-27T10:50:08;102942.44;;;11.85
67509;BMP280;54354;44.724;11.284;2024-01-27T10:52:38;102947.94;;;11.96
67509;BMP280;54354;44.724;11.284;2024-01-27T10:55:05;102966.53;;;11.96
67509;BMP280;54354;44.724;11.284;2024-01-27T10:57:34;102959.31;;;11.97
67509;BMP280;54354;44.724;11.284;2024-01-27T11:00:04;102961.91;;;11.93
67509;BMP280;54354;44.724;11.284;2024-01-27T11:02:33;102964.28;;;11.98
67509;BMP280;54354;44.724;11.284;2024-01-27T11:05:00;102956.75;;;12.04
67509;BMP280;54354;44.724;11.284;2024-01-27T11:07:27;102963.66;;;12.08
67509;BMP280;54354;44.724;11.284;2024-01-27T11:09:53;102960.31;;;12.15
67509;BMP280;54354;44.724;11.284;2024-01-27T11:12:21;102950.06;;;12.13
67509;BMP280;54354;44.724;11.284;2024-01-27T11:14:48;102942.59;;;12.23
67509;BMP280;54354;44.724;11.284;2024-01-27T11:17:15;102936.56;;;12.26
67509;BMP280;54354;44.724;11.284;2024-01-27T11:19:41;102944.66;;;12.36
67509;BMP280;54354;44.724;11.284;2024-01-27T11:22:07;102950.13;;;12.47
67509;BMP280;54354;44.724;11.284;2024-01-27T11:24:33;102952.13;;;12.57
67509;BMP280;54354;44.724;11.284;2024-01-27T11:27:05;102949.53;;;12.61
67509;BMP280;54354;44.724;11.284;2024-01-27T11:29:32;102953.09;;;12.76
67509;BMP280;54354;44.724;11.284;2024-01-27T11:32:02;102942.94;;;12.85
67509;BMP280;54354;44.724;11.284;2024-01-27T11:34:28;102955.69;;;13.06
67509;BMP280;54354;44.724;11.284;2024-01-27T11:36:53;102960.72;;;13.14
67509;BMP280;54354;44.724;11.284;2024-01-27T11:39:24;102949.28;;;13.14
67509;BMP280;54354;44.724;11.284;2024-01-27T11:41:51;102947.13;;;13.27
67509;BMP280;54354;44.724;11.284;2024-01-27T11:44:17;102950.94;;;13.29
67509;BMP280;54354;44.724;11.284;2024-01-27T11:46:44;102951.75;;;13.37
67509;BMP280;54354;44.724;11.284;2024-01-27T11:49:17;102944.94;;;13.39
67509;BMP280;54354;44.724;11.284;2024-01-27T11:51:43;102940.84;;;13.52
67509;BMP280;54354;44.724;11.284;2024-01-27T11:54:09;102952.34;;;13.64
67509;BMP280;54354;44.724;11.284;2024-01-27T11:56:35;102950.50;;;13.71
67509;BMP280;54354;44.724;11.284;2024-01-27T11:59:00;102949.75;;;13.74
67509;BMP280;54354;44.724;11.284;2024-01-27T12:01:26;102947.84;;;13.71
67509;BMP280;54354;44.724;11.284;2024-01-27T12:03:51;102953.19;;;13.71
67509;BMP280;54354;44.724;11.284;2024-01-27T12:06:17;102961.94;;;13.72
67509;BMP280;54354;44.724;11.284;2024-01-27T12:08:43;102952.03;;;13.72
67509;BMP280;54354;44.724;11.284;2024-01-27T12:11:16;102951.50;;;13.52
67509;BMP280;54354;44.724;11.284;2024-01-27T12:13:41;102970.56;;;13.55
67509;BMP280;54354;44.724;11.284;2024-01-27T12:16:08;102970.13;;;13.52
67509;BMP280;54354;44.724;11.284;2024-01-27T12:18:35;102969.38;;;13.56
67509;BMP280;54354;44.724;11.284;2024-01-27T12:21:00;102972.41;;;13.47
67509;BMP280;54354;44.724;11.284;2024-01-27T12:23:26;102975.00;;;13.43
67509;BMP280;54354;44.724;11.284;2024-01-27T12:25:55;102962.84;;;13.42
67509;BMP280;54354;44.724;11.284;2024-01-27T12:28:24;102961.06;;;13.57
67509;BMP280;54354;44.724;11.284;2024-01-27T12:30:52;102956.91;;;13.63
67509;BMP280;54354;44.724;11.284;2024-01-27T12:33:20;102953.47;;;13.63
67509;BMP280;54354;44.724;11.284;2024-01-27T12:35:50;102952.41;;;13.74
67509;BMP280;54354;44.724;11.284;2024-01-27T12:38:17;102956.22;;;13.73
67509;BMP280;54354;44.724;11.284;2024-01-27T12:40:43;102965.34;;;13.76
67509;BMP280;54354;44.724;11.284;2024-01-27T12:43:08;102962.34;;;13.77
67509;BMP280;54354;44.724;11.284;2024-01-27T12:45:34;102961.25;;;13.86
67509;BMP280;54354;44.724;11.284;2024-01-27T12:48:00;102960.53;;;13.92
67509;BMP280;54354;44.724;11.284;2024-01-27T12:50:27;102943.38;;;13.93
67509;BMP280;54354;44.724;11.284;2024-01-27T12:52:53;102949.47;;;13.90
67509;BMP280;54354;44.724;11.284;2024-01-27T12:55:19;102945.63;;;13.84
67509;BMP280;54354;44.724;11.284;2024-01-27T12:57:46;102938.00;;;13.79
67509;BMP280;54354;44.724;11.284;2024-01-27T13:00:12;102939.16;;;13.85
67509;BMP280;54354;44.724;11.284;2024-01-27T13:02:40;102943.72;;;13.88
67509;BMP280;54354;44.724;11.284;2024-01-27T13:05:06;102929.31;;;13.89
67509;BMP280;54354;44.724;11.284;2024-01-27T13:07:31;102930.06;;;13.93
67509;BMP280;54354;44.724;11.284;2024-01-27T13:09:57;102924.41;;;13.98
67509;BMP280;54354;44.724;11.284;2024-01-27T13:12:26;102927.09;;;14.05
67509;BMP280;54354;44.724;11.284;2024-01-27T13:14:51;102932.06;;;14.11
67509;BMP280;54354;44.724;11.284;2024-01-27T13:17:17;102914.56;;;14.13
67509;BMP280;54354;44.724;11.284;2024-01-27T13:19:42;102924.84;;;14.15
67509;BMP280;54354;44.724;11.284;2024-01-27T13:22:08;102923.66;;;14.12
67509;BMP280;54354;44.724;11.284;2024-01-27T13:24:33;102921.81;;;14.16
67509;BMP280;54354;44.724;11.284;2024-01-27T13:26:59;102921.84;;;14.23
67509;BMP280;54354;44.724;11.284;2024-01-27T13:29:25;102920.34;;;14.33
67509;BMP280;54354;44.724;11.284;2024-01-27T13:31:52;102918.06;;;14.39
67509;BMP280;54354;44.724;11.284;2024-01-27T13:34:18;102915.00;;;14.33
67509;BMP280;54354;44.724;11.284;2024-01-27T13:36:43;102915.72;;;14.16
67509;BMP280;54354;44.724;11.284;2024-01-27T13:39:09;102912.25;;;14.04
67509;BMP280;54354;44.724;11.284;2024-01-27T13:41:35;102903.84;;;13.99
67509;BMP280;54354;44.724;11.284;2024-01-27T13:44:00;102923.69;;;14.05
67509;BMP280;54354;44.724;11.284;2024-01-27T13:46:26;102921.38;;;14.03
67509;BMP280;54354;44.724;11.284;2024-01-27T13:48:52;102922.09;;;13.97
67509;BMP280;54354;44.724;11.284;2024-01-27T13:51:17;102932.75;;;13.97
67509;BMP280;54354;44.724;11.284;2024-01-27T13:53:43;102936.16;;;13.94
67509;BMP280;54354;44.724;11.284;2024-01-27T13:56:09;102940.72;;;13.93
67509;BMP280;54354;44.724;11.284;2024-01-27T13:58:34;102938.81;;;13.94
67509;BMP280;54354;44.724;11.284;2024-01-27T14:01:00;102944.91;;;13.91
67509;BMP280;54354;44.724;11.284;2024-01-27T14:03:25;102949.44;;;13.83
67509;BMP280;54354;44.724;11.284;2024-01-27T14:05:51;102962.34;;;13.81
67509;BMP280;54354;44.724;11.284;2024-01-27T14:08:17;102957.00;;;13.74
67509;BMP280;54354;44.724;11.284;2024-01-27T14:10:44;102967.97;;;13.69
67509;BMP280;54354;44.724;11.284;2024-01-27T14:13:10;102966.72;;;13.56
67509;BMP280;54354;44.724;11.284;2024-01-27T14:15:36;102966.69;;;13.48
67509;BMP280;54354;44.724;11.284;2024-01-27T14:18:02;102965.94;;;13.48
67509;BMP280;54354;44.724;11.284;2024-01-27T14:20:32;102956.78;;;13.45
67509;BMP280;54354;44.724;11.284;2024-01-27T14:22:59;102960.22;;;13.46
67509;BMP280;54354;44.724;11.284;2024-01-27T14:25:24;102965.53;;;13.46
67509;BMP280;54354;44.724;11.284;2024-01-27T14:27:50;102973.06;;;13.37
67509;BMP280;54354;44.724;11.284;2024-01-27T14:30:15;102981.66;;;13.23
67509;BMP280;54354;44.724;11.284;2024-01-27T14:32:41;102985.38;;;13.11
67509;BMP280;54354;44.724;11.284;2024-01-27T14:35:07;102994.81;;;13.05
67509;BMP280;54354;44.724;11.284;2024-01-27T14:37:32;102989.00;;;12.96
67509;BMP280;54354;44.724;11.284;2024-01-27T14:39:58;102978.97;;;12.79
67509;BMP280;54354;44.724;11.284;2024-01-27T14:42:24;102980.81;;;12.75
67509;BMP280;54354;44.724;11.284;2024-01-27T14:44:50;102970.13;;;12.71
67509;BMP280;54354;44.724;11.284;2024-01-27T14:47:18;102976.81;;;12.88
67509;BMP280;54354;44.724;11.284;2024-01-27T14:49:43;102987.94;;;13.01
67509;BMP280;54354;44.724;11.284;2024-01-27T14:52:10;102985.72;;;13.06
67509;BMP280;54354;44.724;11.284;2024-01-27T14:54:37;102973.19;;;13.07
67509;BMP280;54354;44.724;11.284;2024-01-27T14:57:04;102980.81;;;13.08
67509;BMP280;54354;44.724;11.284;2024-01-27T14:59:31;102968.63;;;13.07
67509;BMP280;54354;44.724;11.284;2024-01-27T15:01:57;102981.59;;;13.12